メインページ
METAR-TAF:

METAR-TAF

空港 :

オークランド国際空港

オークランド, ニュージーランド

緯度: 37-01S, 経度: 174-48E, 海抜: 7m

現時点の気象観測

当レポートは22分前の06:30(UTC)に作成
南西の風 22kt
気温 13°C
湿度 72%
気圧 1006 hPa
視程10km以上

METAR: NZAA 150630Z AUTO 23022KT 9999 NCD 13/08 Q1006 NOSIG

時間: 18:52 (06:52 UTC)

予報

当レポートは1時間49分前の05:03(UTC)に作成
予報は15日の 06時(UTC)から 16日の 06時(UTC)まで有効
南西の風 20kt、最大35ktの突風を伴う
視程10km以上
高度2000ftの雲はほとんどない
高度3500ftの千切れ雲あり
弱いにわか雨
15日の 06時(UTC)から 15日の 08時(UTC)まで徐々に
西/南西の風 15kt、最大25ktの突風を伴う
15日の 10時(UTC)から 15日の 12時(UTC)まで徐々に
西/南西の風 10kt
15日の 2200時(UTC)から
西/北西の風 8kt
視程10km以上
高度1800ftの雲は散在している
高度3000ftの千切れ雲あり
弱いにわか雨

TAF: NZAA 150503Z 1506/1606 23020G35KT 9999 -SHRA FEW020 BKN035 BECMG 1506/1508 24015G25KT BECMG 1510/1512 24010KT FM152200 30008KT 9999 -SHRA SCT018 BKN030

4,000以上の空港の気象観測と天気予報(METAR報とTAF報)

利用可能な観測所は地図上に黄色い丸と赤い丸で示す。

丸の上にカーソルを重ねると観測所名を参照できる。

次にクリックすると気象観測と天気予報を参照できる。

マップの切り替え:黒色「×」印の緑ボタンをクリックして拡大、「-」印の緑ボタンをクリックして縮小、緑色の三角印をクリックして隣りの地図に切り替え


METAR-TAF: